createdAt,value
2022-10-31T00:00:54.300Z,24.03
2022-10-31T00:03:41.032Z,27.57
2022-10-31T00:06:27.878Z,26.87
2022-10-31T00:09:14.900Z,22.07
2022-10-31T00:12:01.559Z,26.27
2022-10-31T00:14:49.008Z,19.03
2022-10-31T00:17:38.309Z,20.57
2022-10-31T00:20:24.772Z,25.27
2022-10-31T00:23:12.703Z,19.20
2022-10-31T00:26:03.034Z,23.00
2022-10-31T00:28:50.199Z,26.90
2022-10-31T00:31:36.973Z,24.80
2022-10-31T00:34:24.948Z,22.67
2022-10-31T00:37:12.109Z,20.60
2022-10-31T00:39:59.008Z,24.43
2022-10-31T00:42:45.821Z,23.20
2022-10-31T00:45:32.582Z,21.73
2022-10-31T00:48:19.478Z,24.87
2022-10-31T00:51:08.033Z,22.03
2022-10-31T00:53:54.958Z,28.73
2022-10-31T00:56:41.629Z,20.57
2022-10-31T00:59:28.474Z,22.67
2022-10-31T01:02:16.142Z,22.97
2022-10-31T01:05:02.935Z,22.63
2022-10-31T01:07:51.271Z,26.13
2022-10-31T01:10:38.061Z,28.77
2022-10-31T01:13:24.515Z,19.47
2022-10-31T01:16:14.479Z,20.17
2022-10-31T01:19:01.155Z,13.90
2022-10-31T01:21:47.855Z,20.23
2022-10-31T01:24:36.282Z,16.87
2022-10-31T01:27:23.006Z,15.90
2022-10-31T01:30:10.671Z,11.73
2022-10-31T01:32:57.218Z,17.30
2022-10-31T01:35:45.646Z,12.07
2022-10-31T01:38:35.295Z,11.73
2022-10-31T01:41:27.779Z,11.07
2022-10-31T01:44:51.879Z,18.87
2022-10-31T01:47:45.643Z,11.77
2022-10-31T01:50:37.277Z,16.27
2022-10-31T01:53:27.273Z,13.77
2022-10-31T01:56:17.080Z,15.77
2022-10-31T01:59:10.080Z,16.00
2022-10-31T02:01:56.591Z,13.30
2022-10-31T02:04:43.995Z,20.57
2022-10-31T02:07:38.848Z,12.93
2022-10-31T02:10:26.738Z,15.77
2022-10-31T02:13:15.168Z,13.77
2022-10-31T02:16:11.491Z,13.53
2022-10-31T02:18:59.016Z,18.97
2022-10-31T02:21:53.564Z,14.03
2022-10-31T02:24:48.520Z,24.30
2022-10-31T02:28:08.811Z,20.90
2022-10-31T02:31:08.104Z,16.37
2022-10-31T02:34:00.437Z,19.87
2022-10-31T02:36:58.476Z,15.57
2022-10-31T02:39:53.791Z,13.27
2022-10-31T02:42:54.930Z,27.20
2022-10-31T02:45:49.319Z,15.67
2022-10-31T02:48:42.048Z,19.47
2022-10-31T02:51:29.488Z,17.60
2022-10-31T02:54:21.934Z,26.50
2022-10-31T02:57:10.636Z,17.27
2022-10-31T03:00:02.780Z,18.83
2022-10-31T03:03:03.713Z,17.73
2022-10-31T03:06:00.974Z,18.83
2022-10-31T03:08:56.030Z,23.97
2022-10-31T03:11:48.962Z,47.27
2022-10-31T03:14:43.317Z,90.07
2022-10-31T03:17:36.462Z,58.87
2022-10-31T03:20:28.506Z,22.77
2022-10-31T03:23:19.767Z,41.93
2022-10-31T03:26:13.602Z,43.07
2022-10-31T03:29:05.161Z,39.53
2022-10-31T03:31:58.019Z,32.00
2022-10-31T03:34:47.804Z,23.90
2022-10-31T03:37:41.694Z,19.73
2022-10-31T03:40:37.247Z,19.60
2022-10-31T03:43:30.716Z,22.33
2022-10-31T03:46:17.594Z,21.93
2022-10-31T03:49:05.360Z,19.97
2022-10-31T03:52:00.307Z,17.97
2022-10-31T03:54:48.584Z,22.63
2022-10-31T03:57:41.533Z,17.87
2022-10-31T04:00:32.812Z,30.07
2022-10-31T04:03:23.627Z,22.17
2022-10-31T04:06:16.372Z,23.07
2022-10-31T04:09:06.870Z,24.00
2022-10-31T04:11:58.678Z,19.07
2022-10-31T04:14:59.754Z,26.27
2022-10-31T04:17:49.712Z,25.00
2022-10-31T04:20:40.818Z,24.13
2022-10-31T04:23:29.098Z,23.33
2022-10-31T04:26:16.003Z,30.10
2022-10-31T04:29:04.879Z,24.17
2022-10-31T04:31:53.071Z,23.13
2022-10-31T04:34:39.820Z,22.30
2022-10-31T04:37:26.553Z,31.23
2022-10-31T04:40:13.695Z,20.53
2022-10-31T04:43:06.449Z,21.37
2022-10-31T04:45:53.277Z,21.27
2022-10-31T04:48:42.570Z,21.37
2022-10-31T04:51:29.312Z,19.30
2022-10-31T04:54:16.185Z,17.93
2022-10-31T04:57:14.782Z,19.77
2022-10-31T05:00:02.969Z,23.40
2022-10-31T05:02:51.115Z,28.93
2022-10-31T05:05:38.972Z,22.77
2022-10-31T05:08:26.207Z,30.13
2022-10-31T05:11:14.187Z,20.43
2022-10-31T05:14:00.798Z,25.57
2022-10-31T05:17:17.032Z,25.90
2022-10-31T05:20:35.649Z,21.03
2022-10-31T05:23:33.971Z,24.53
2022-10-31T05:26:20.697Z,25.40
2022-10-31T05:29:07.970Z,24.67
2022-10-31T05:31:55.907Z,29.10
2022-10-31T05:35:06.181Z,21.13
2022-10-31T05:38:13.043Z,22.00
2022-10-31T05:41:02.242Z,28.77
2022-10-31T05:43:52.207Z,24.70
2022-10-31T05:46:44.647Z,22.10
2022-10-31T05:49:50.299Z,23.27
2022-10-31T05:52:57.870Z,21.30
2022-10-31T05:55:50.426Z,19.37
2022-10-31T05:58:41.043Z,23.23
2022-10-31T06:01:28.424Z,26.00
2022-10-31T06:04:17.244Z,23.73
2022-10-31T06:07:04.049Z,18.60
2022-10-31T06:09:50.695Z,17.50
2022-10-31T06:12:41.739Z,20.80
2022-10-31T06:15:48.999Z,27.13
2022-10-31T06:18:38.251Z,19.43
2022-10-31T06:21:25.364Z,23.20
2022-10-31T06:24:11.792Z,20.43
2022-10-31T06:27:25.205Z,24.37
2022-10-31T06:30:12.898Z,24.77
2022-10-31T06:33:05.817Z,22.87
2022-10-31T06:35:55.769Z,24.87
2022-10-31T06:38:42.552Z,21.90
2022-10-31T06:41:30.313Z,24.03
2022-10-31T06:44:17.087Z,21.73
2022-10-31T06:47:19.350Z,27.07
2022-10-31T06:50:17.657Z,22.83
2022-10-31T06:53:07.772Z,20.57
2022-10-31T06:55:54.264Z,19.57
2022-10-31T06:58:42.948Z,25.23
2022-10-31T07:01:31.941Z,25.27
2022-10-31T07:04:20.257Z,28.23
2022-10-31T07:07:09.320Z,25.30
2022-10-31T07:09:58.071Z,20.20
2022-10-31T07:13:03.456Z,34.00
2022-10-31T07:15:52.696Z,24.60
2022-10-31T07:18:39.480Z,23.33
2022-10-31T07:21:26.187Z,27.80
2022-10-31T07:24:14.249Z,31.30
2022-10-31T07:27:03.689Z,34.93
2022-10-31T07:29:50.469Z,28.23
2022-10-31T07:32:41.331Z,29.27
2022-10-31T07:35:30.244Z,23.93
2022-10-31T07:38:18.507Z,26.10
2022-10-31T07:41:06.890Z,19.40
2022-10-31T07:43:59.046Z,26.93
2022-10-31T07:47:15.369Z,24.63
2022-10-31T07:50:23.135Z,24.40
2022-10-31T07:53:42.212Z,32.83
2022-10-31T07:56:43.693Z,23.10
2022-10-31T07:59:30.389Z,25.40
2022-10-31T08:02:17.065Z,31.23
2022-10-31T08:05:30.034Z,29.47
2022-10-31T08:08:46.709Z,23.93
2022-10-31T08:11:33.433Z,25.17
2022-10-31T08:14:23.457Z,23.37
2022-10-31T08:17:12.198Z,30.00
2022-10-31T08:20:10.205Z,25.93
2022-10-31T08:23:06.467Z,31.43
2022-10-31T08:25:55.102Z,22.37
2022-10-31T08:28:43.546Z,26.30
2022-10-31T08:31:33.974Z,30.73
2022-10-31T08:34:41.161Z,31.97
2022-10-31T08:37:46.349Z,29.97
2022-10-31T08:40:36.159Z,27.83
2022-10-31T08:43:23.156Z,28.63
2022-10-31T08:46:10.676Z,33.67
2022-10-31T08:49:00.890Z,23.70
2022-10-31T08:51:49.949Z,30.20
2022-10-31T08:54:36.967Z,30.77
2022-10-31T08:57:42.932Z,25.63
2022-10-31T09:00:31.422Z,29.50
2022-10-31T09:03:24.131Z,33.43
2022-10-31T09:06:12.184Z,20.33
2022-10-31T09:08:59.713Z,33.07
2022-10-31T09:11:46.515Z,29.47
2022-10-31T09:14:51.838Z,25.37
2022-10-31T09:17:48.707Z,30.63
2022-10-31T09:20:43.576Z,24.07
2022-10-31T09:23:33.051Z,29.70
2022-10-31T09:26:20.638Z,26.07
2022-10-31T09:29:16.394Z,33.63
2022-10-31T09:32:04.169Z,37.10
2022-10-31T09:34:54.057Z,30.47
2022-10-31T09:37:40.861Z,32.40
2022-10-31T09:40:34.880Z,28.27
2022-10-31T09:43:28.258Z,27.47
2022-10-31T09:46:23.695Z,30.27
2022-10-31T09:49:52.384Z,42.33
2022-10-31T09:52:41.933Z,35.07
2022-10-31T09:55:37.191Z,24.33
2022-10-31T09:58:28.590Z,34.87
2022-10-31T10:01:35.405Z,29.13
2022-10-31T10:04:39.411Z,33.17
2022-10-31T10:07:43.979Z,33.57
2022-10-31T10:10:57.289Z,35.37
2022-10-31T10:13:59.876Z,30.20
2022-10-31T10:17:02.993Z,34.23
2022-10-31T10:20:05.982Z,32.60
2022-10-31T10:23:04.539Z,31.90
2022-10-31T10:26:00.146Z,33.70
2022-10-31T10:28:49.794Z,36.03
2022-10-31T10:31:42.619Z,34.67
2022-10-31T10:34:34.631Z,32.63
2022-10-31T10:37:29.012Z,31.67
2022-10-31T10:40:18.967Z,30.27
2022-10-31T10:43:32.912Z,31.60
2022-10-31T10:46:38.744Z,28.17
2022-10-31T10:49:32.171Z,35.47
2022-10-31T10:52:50.560Z,28.73
2022-10-31T10:55:44.920Z,30.17
2022-10-31T10:58:32.907Z,27.47
2022-10-31T11:01:19.471Z,36.13
2022-10-31T11:04:26.139Z,33.17
2022-10-31T11:07:13.849Z,28.73
2022-10-31T11:10:06.097Z,27.47
2022-10-31T11:13:24.398Z,31.23
2022-10-31T11:16:15.104Z,33.87
2022-10-31T11:19:15.828Z,33.67
2022-10-31T11:22:08.147Z,32.47
2022-10-31T11:24:54.623Z,28.83
2022-10-31T11:27:41.358Z,32.57
2022-10-31T11:30:28.554Z,25.73
2022-10-31T11:33:22.841Z,39.97
2022-10-31T11:36:18.487Z,25.27
2022-10-31T11:39:07.834Z,33.33
2022-10-31T11:41:56.357Z,33.50
2022-10-31T11:44:46.477Z,30.03
2022-10-31T11:47:34.442Z,26.00
2022-10-31T11:50:25.318Z,33.00
2022-10-31T11:53:17.204Z,28.90
2022-10-31T11:56:07.578Z,32.03
2022-10-31T11:58:58.622Z,28.83
2022-10-31T12:01:50.119Z,32.17
2022-10-31T12:04:44.161Z,31.80
2022-10-31T12:07:32.467Z,35.57
2022-10-31T12:10:26.875Z,31.70
2022-10-31T12:13:35.341Z,30.50
2022-10-31T12:16:29.143Z,32.73
2022-10-31T12:19:27.361Z,34.33
2022-10-31T12:22:22.592Z,29.93
2022-10-31T12:25:24.094Z,30.87
2022-10-31T12:28:26.389Z,28.60
2022-10-31T12:31:29.494Z,29.07
2022-10-31T12:34:48.651Z,34.93
2022-10-31T12:37:53.205Z,28.07
2022-10-31T12:41:04.187Z,25.80
2022-10-31T12:43:59.395Z,39.90
2022-10-31T12:47:00.958Z,37.07
2022-10-31T12:49:56.488Z,33.10
2022-10-31T12:52:58.676Z,36.03
2022-10-31T12:56:04.184Z,31.90
2022-10-31T12:58:57.621Z,38.03
2022-10-31T13:01:51.559Z,39.03
2022-10-31T13:04:45.661Z,32.20
2022-10-31T13:07:38.409Z,40.67
2022-10-31T13:10:29.105Z,29.60
2022-10-31T13:13:20.538Z,31.00
2022-10-31T13:16:13.734Z,36.37
2022-10-31T13:19:06.719Z,37.57
2022-10-31T13:22:02.142Z,36.83
2022-10-31T13:24:55.654Z,38.37
2022-10-31T13:27:49.485Z,41.67
2022-10-31T13:30:42.048Z,35.10
2022-10-31T13:33:34.080Z,27.00
2022-10-31T13:36:28.366Z,29.27
2022-10-31T13:39:25.561Z,28.70
2022-10-31T13:42:20.565Z,32.73
2022-10-31T13:45:22.533Z,24.33
2022-10-31T13:48:35.855Z,25.70
2022-10-31T13:51:33.399Z,30.30
2022-10-31T13:54:24.382Z,30.60
2022-10-31T13:57:19.250Z,25.47
2022-10-31T14:00:09.406Z,31.47
2022-10-31T14:03:00.037Z,33.60
2022-10-31T14:05:55.507Z,29.10
2022-10-31T14:08:49.075Z,28.70
2022-10-31T14:11:37.166Z,35.27
2022-10-31T14:14:28.905Z,29.63
2022-10-31T14:17:25.809Z,37.83
2022-10-31T14:20:41.045Z,33.60
2022-10-31T14:23:37.433Z,37.30
2022-10-31T14:26:34.715Z,29.30
2022-10-31T14:29:29.937Z,35.80
2022-10-31T14:32:24.248Z,30.30
2022-10-31T14:35:21.250Z,34.70
2022-10-31T14:38:27.832Z,30.97
2022-10-31T14:41:46.921Z,28.77
2022-10-31T14:45:03.685Z,32.00
2022-10-31T14:48:06.973Z,34.43
2022-10-31T14:50:56.402Z,24.70
2022-10-31T14:53:49.556Z,31.07
2022-10-31T14:56:39.632Z,29.80
2022-10-31T14:59:31.467Z,38.13
2022-10-31T15:02:25.261Z,29.93
2022-10-31T15:05:13.817Z,28.30
2022-10-31T15:08:01.041Z,30.97
2022-10-31T15:10:48.251Z,29.17
2022-10-31T15:13:34.902Z,27.83
2022-10-31T15:16:25.228Z,29.07
2022-10-31T15:19:16.757Z,27.50
2022-10-31T15:22:03.350Z,27.27
2022-10-31T15:24:57.045Z,21.90
2022-10-31T15:27:43.593Z,26.47
2022-10-31T15:30:32.441Z,27.37
2022-10-31T15:33:25.948Z,32.70
2022-10-31T15:36:24.018Z,31.30
2022-10-31T15:39:14.093Z,33.70
2022-10-31T15:42:01.763Z,27.70
2022-10-31T15:44:51.952Z,32.90
2022-10-31T15:47:39.381Z,25.57
2022-10-31T15:50:32.209Z,29.87
2022-10-31T15:53:21.913Z,34.37
2022-10-31T15:56:10.857Z,31.73
2022-10-31T15:59:00.251Z,26.37
2022-10-31T16:02:02.827Z,33.57
2022-10-31T16:04:52.149Z,29.37
2022-10-31T16:07:50.835Z,39.60
2022-10-31T16:10:37.874Z,35.00
2022-10-31T16:13:28.872Z,34.63
2022-10-31T16:16:35.527Z,43.27
2022-10-31T16:19:25.054Z,42.77
2022-10-31T16:22:14.240Z,42.67
2022-10-31T16:25:07.110Z,36.70
2022-10-31T16:27:56.916Z,36.67
2022-10-31T16:30:48.388Z,38.63
2022-10-31T16:33:37.897Z,42.87
2022-10-31T16:36:35.890Z,37.83
2022-10-31T16:39:23.302Z,38.47
2022-10-31T16:42:12.056Z,40.13
2022-10-31T16:44:59.408Z,37.33
2022-10-31T16:47:46.275Z,49.03
2022-10-31T16:50:33.075Z,48.57
2022-10-31T16:53:19.839Z,56.00
2022-10-31T16:56:07.204Z,66.87
2022-10-31T16:58:55.518Z,202.90
2022-10-31T17:01:45.455Z,87.93
2022-10-31T17:04:32.145Z,93.23
2022-10-31T17:07:18.659Z,77.63
2022-10-31T17:10:06.129Z,58.77
2022-10-31T17:12:53.003Z,59.90
2022-10-31T17:15:45.195Z,94.97
2022-10-31T17:18:32.621Z,66.97
2022-10-31T17:21:23.227Z,60.47
2022-10-31T17:24:13.427Z,80.83
2022-10-31T17:26:59.937Z,55.90
2022-10-31T17:29:47.163Z,80.87
2022-10-31T17:32:34.944Z,82.97
2022-10-31T17:35:21.847Z,62.37
2022-10-31T17:38:08.771Z,60.23
2022-10-31T17:40:55.489Z,102.50
2022-10-31T17:43:42.443Z,57.57
2022-10-31T17:46:29.422Z,89.63
2022-10-31T17:49:17.317Z,90.37
2022-10-31T17:52:04.149Z,538.63
2022-10-31T17:54:51.078Z,500.13
2022-10-31T17:57:42.817Z,592.07
2022-10-31T18:00:31.393Z,584.93
2022-10-31T18:03:21.193Z,200.33
2022-10-31T18:06:11.174Z,529.70
2022-10-31T18:09:03.936Z,454.33
2022-10-31T18:11:59.335Z,220.47
2022-10-31T18:14:48.619Z,295.63
2022-10-31T18:17:38.074Z,590.17
2022-10-31T18:20:28.064Z,209.50
2022-10-31T18:23:16.218Z,281.13
2022-10-31T18:26:03.050Z,111.40
2022-10-31T18:28:49.766Z,82.33
2022-10-31T18:31:37.065Z,332.77
2022-10-31T18:34:27.396Z,300.30
2022-10-31T18:37:15.496Z,538.80
2022-10-31T18:40:04.735Z,380.00
2022-10-31T18:42:51.381Z,262.97
2022-10-31T18:45:47.238Z,392.30
2022-10-31T18:48:43.089Z,230.47
2022-10-31T18:51:31.594Z,243.17
2022-10-31T18:54:20.175Z,395.90
2022-10-31T18:57:10.899Z,271.57
2022-10-31T19:00:01.850Z,328.60
2022-10-31T19:02:49.922Z,257.70
2022-10-31T19:05:37.133Z,209.87
2022-10-31T19:08:25.949Z,132.13
2022-10-31T19:11:16.369Z,113.33
2022-10-31T19:14:04.456Z,96.40
2022-10-31T19:16:52.505Z,114.30
2022-10-31T19:19:39.575Z,318.70
2022-10-31T19:22:26.322Z,126.67
2022-10-31T19:25:13.179Z,85.73
2022-10-31T19:28:00.368Z,116.00
2022-10-31T19:30:55.388Z,73.70
2022-10-31T19:33:42.028Z,61.40
2022-10-31T19:36:29.695Z,82.60
2022-10-31T19:39:16.249Z,80.30
2022-10-31T19:42:02.974Z,76.00
2022-10-31T19:44:51.818Z,68.27
2022-10-31T19:47:41.880Z,78.20
2022-10-31T19:50:30.495Z,55.93
2022-10-31T19:53:17.711Z,88.83
2022-10-31T19:56:05.047Z,75.80
2022-10-31T19:58:53.417Z,68.67
2022-10-31T20:01:43.104Z,71.43
2022-10-31T20:04:34.580Z,79.87
2022-10-31T20:07:24.125Z,78.50
2022-10-31T20:10:12.611Z,81.20
2022-10-31T20:13:01.923Z,99.13
2022-10-31T20:15:50.575Z,83.63
2022-10-31T20:18:38.295Z,81.20
2022-10-31T20:21:28.731Z,93.10
2022-10-31T20:24:15.598Z,101.73
2022-10-31T20:27:03.232Z,103.17
2022-10-31T20:29:49.763Z,137.80
2022-10-31T20:32:37.355Z,129.13
2022-10-31T20:35:23.985Z,102.53
2022-10-31T20:38:12.237Z,98.07
2022-10-31T20:41:01.565Z,81.60
2022-10-31T20:43:48.751Z,72.30
2022-10-31T20:46:35.443Z,96.50
2022-10-31T20:49:22.230Z,92.83
2022-10-31T20:52:08.795Z,82.00
2022-10-31T20:54:56.877Z,69.53
2022-10-31T20:57:44.066Z,92.70
2022-10-31T21:00:30.873Z,77.13
2022-10-31T21:03:17.690Z,119.47
2022-10-31T21:06:05.906Z,153.40
2022-10-31T21:08:53.936Z,120.10
2022-10-31T21:11:41.873Z,126.93
2022-10-31T21:14:28.741Z,123.07
2022-10-31T21:17:15.643Z,98.87
2022-10-31T21:20:02.470Z,91.97
2022-10-31T21:22:49.142Z,75.67
2022-10-31T21:25:39.279Z,88.90
2022-10-31T21:28:27.241Z,118.33
2022-10-31T21:31:16.500Z,99.17
2022-10-31T21:34:04.006Z,111.43
2022-10-31T21:36:50.428Z,91.47
2022-10-31T21:39:38.669Z,95.37
2022-10-31T21:42:25.867Z,72.13
2022-10-31T21:45:14.107Z,76.00
2022-10-31T21:48:01.074Z,63.53
2022-10-31T21:50:48.855Z,70.27
2022-10-31T21:53:53.574Z,96.43
2022-10-31T21:56:40.242Z,84.57
2022-10-31T21:59:27.267Z,77.80
2022-10-31T22:02:16.646Z,79.43
2022-10-31T22:05:03.118Z,65.43
2022-10-31T22:07:49.773Z,62.67
2022-10-31T22:10:36.613Z,69.13
2022-10-31T22:13:23.905Z,80.97
2022-10-31T22:16:13.452Z,74.77
2022-10-31T22:19:05.474Z,65.00
2022-10-31T22:21:52.689Z,60.40
2022-10-31T22:24:40.524Z,63.20
2022-10-31T22:27:29.037Z,76.63
2022-10-31T22:30:15.681Z,95.03
2022-10-31T22:33:02.873Z,63.40
2022-10-31T22:35:51.223Z,74.50
2022-10-31T22:38:40.517Z,93.13
2022-10-31T22:41:29.567Z,121.47
2022-10-31T22:44:16.307Z,87.73
2022-10-31T22:47:03.240Z,126.80
2022-10-31T22:49:50.133Z,80.03
2022-10-31T22:52:38.292Z,95.47
2022-10-31T22:55:24.948Z,71.43
2022-10-31T22:58:11.959Z,84.43
2022-10-31T23:00:58.865Z,77.00
2022-10-31T23:03:45.611Z,126.03
2022-10-31T23:06:34.148Z,124.33
2022-10-31T23:09:22.156Z,92.20
2022-10-31T23:12:22.993Z,69.17
2022-10-31T23:15:10.440Z,55.97
2022-10-31T23:17:58.364Z,73.27
2022-10-31T23:20:51.265Z,58.10
2022-10-31T23:23:41.924Z,67.23
2022-10-31T23:26:48.934Z,67.00
2022-10-31T23:29:42.430Z,73.50
2022-10-31T23:32:31.526Z,63.53
2022-10-31T23:35:18.378Z,62.87
2022-10-31T23:38:05.030Z,69.03
2022-10-31T23:40:51.766Z,62.00
2022-10-31T23:43:39.824Z,64.30
2022-10-31T23:46:26.794Z,73.37
2022-10-31T23:49:15.699Z,62.83
2022-10-31T23:52:02.579Z,64.60
2022-10-31T23:54:49.354Z,74.23
2022-10-31T23:57:36.026Z,67.63
